CSL Niagara — VCGJ — position and weather

sailwx.info

Track history (hours):
 
Tides and Currents Weather Stations Pressure Air Temp Water Temp Dewpoint Dewpoint Depression Visibility Wind Speed Wind Dir Waves Ship Positions

CSL Niagara

ex J. W. McGiffin

Last reported at 2015-Aug-29 18:33 UTC. Time now 2015-Aug-30 12:00 UTC.
Position N 46°06' W 084°01'.

Length 225 m; draft 7 m.

Type: Cargo ship. MMSI: 316029000.

Date/timePositionNaut miles runAvg speedWind from/ knotsBaromVisibWave heightAir tempDewpointWater temp
2015-Aug-29 18:33N 46°06' W 084°01'323 8.9
2015-Aug-28 06:14N 46°53' W 091°45'811.5
2015-Aug-28 05:33N 46°48' W 091°53'8 7.8
2015-Aug-28 04:33N 46°42' W 092°01'0 0.1
2015-Aug-28 03:32N 46°42' W 092°01'0 0.0
2015-Aug-28 02:33N 46°42' W 092°01'0 0.0
2015-Aug-28 01:33N 46°42' W 092°01'0 0.0
2015-Aug-28 00:31N 46°42' W 092°01'0 0.0
2015-Aug-27 23:33N 46°42' W 092°01'0 0.0
2015-Aug-27 22:33N 46°42' W 092°01'0 0.0
2015-Aug-27 21:33N 46°42' W 092°01'0 0.0
2015-Aug-27 20:33N 46°42' W 092°01'0 0.0
2015-Aug-27 19:33N 46°42' W 092°01'0 0.4
2015-Aug-27 18:33N 46°42' W 092°01'5 4.6
2015-Aug-27 17:33N 46°46' W 092°06'0 0.0
2015-Aug-27 16:33N 46°46' W 092°06'0 0.0
2015-Aug-27 15:33N 46°46' W 092°06'1 1.1
2015-Aug-27 14:34N 46°47' W 092°06'1010.3
2015-Aug-27 13:33N 46°51' W 091°52'334 9.8
2015-Aug-26 03:27N 45°58' W 083°53'  
2015-Aug-23 16:12N 46°15' W 083°32'0 0.0
2015-Aug-23 15:33N 46°15' W 083°32'0 0.0
2015-Aug-23 14:32N 46°15' W 083°32'0 0.0
2015-Aug-23 13:33N 46°15' W 083°32'0 0.0
2015-Aug-23 12:33N 46°15' W 083°32'0 0.0
2015-Aug-23 11:33N 46°15' W 083°32'0 0.0
2015-Aug-23 10:29N 46°15' W 083°32'0 0.0
2015-Aug-23 09:29N 46°15' W 083°32'0 0.0
2015-Aug-23 07:29N 46°15' W 083°32'0 0.0
2015-Aug-23 06:33N 46°15' W 083°32'0 0.0
2015-Aug-23 05:33N 46°15' W 083°32'0 0.0
2015-Aug-23 04:21N 46°15' W 083°32'0 0.0
2015-Aug-23 02:25N 46°15' W 083°32'2 1.6
2015-Aug-23 01:10N 46°14' W 083°34'  
2015-Aug-20 02:29N 45°58' W 083°54'10 9.8
2015-Aug-20 01:31N 46°06' W 084°01'  
Track history (hours):
 
Tides and Currents Weather Stations Pressure Air Temp Water Temp Dewpoint Dewpoint Depression Visibility Wind Speed Wind Dir Waves Ship Positions

CSL Niagara

ex J. W. McGiffin

Last reported at 2015-Aug-29 18:33 UTC. Time now 2015-Aug-30 12:00 UTC.
Position N 46°06' W 084°01'.

Length 225 m; draft 7 m.

Type: Cargo ship. MMSI: 316029000.

Date/timePositionNaut miles runAvg speedWind from/ knotsBaromVisibWave heightAir tempDewpointWater temp
2015-Aug-29 18:33N 46°06' W 084°01'323 8.9
2015-Aug-28 06:14N 46°53' W 091°45'811.5
2015-Aug-28 05:33N 46°48' W 091°53'8 7.8
2015-Aug-28 04:33N 46°42' W 092°01'0 0.1
2015-Aug-28 03:32N 46°42' W 092°01'0 0.0
2015-Aug-28 02:33N 46°42' W 092°01'0 0.0
2015-Aug-28 01:33N 46°42' W 092°01'0 0.0
2015-Aug-28 00:31N 46°42' W 092°01'0 0.0
2015-Aug-27 23:33N 46°42' W 092°01'0 0.0
2015-Aug-27 22:33N 46°42' W 092°01'0 0.0
2015-Aug-27 21:33N 46°42' W 092°01'0 0.0
2015-Aug-27 20:33N 46°42' W 092°01'0 0.0
2015-Aug-27 19:33N 46°42' W 092°01'0 0.4
2015-Aug-27 18:33N 46°42' W 092°01'5 4.6
2015-Aug-27 17:33N 46°46' W 092°06'0 0.0
2015-Aug-27 16:33N 46°46' W 092°06'0 0.0
2015-Aug-27 15:33N 46°46' W 092°06'1 1.1
2015-Aug-27 14:34N 46°47' W 092°06'1010.3
2015-Aug-27 13:33N 46°51' W 091°52'334 9.8
2015-Aug-26 03:27N 45°58' W 083°53'  
2015-Aug-23 16:12N 46°15' W 083°32'0 0.0
2015-Aug-23 15:33N 46°15' W 083°32'0 0.0
2015-Aug-23 14:32N 46°15' W 083°32'0 0.0
2015-Aug-23 13:33N 46°15' W 083°32'0 0.0
2015-Aug-23 12:33N 46°15' W 083°32'0 0.0
2015-Aug-23 11:33N 46°15' W 083°32'0 0.0
2015-Aug-23 10:29N 46°15' W 083°32'0 0.0
2015-Aug-23 09:29N 46°15' W 083°32'0 0.0
2015-Aug-23 07:29N 46°15' W 083°32'0 0.0
2015-Aug-23 06:33N 46°15' W 083°32'0 0.0
2015-Aug-23 05:33N 46°15' W 083°32'0 0.0
2015-Aug-23 04:21N 46°15' W 083°32'0 0.0
2015-Aug-23 02:25N 46°15' W 083°32'2 1.6
2015-Aug-23 01:10N 46°14' W 083°34'  
2015-Aug-20 02:29N 45°58' W 083°54'10 9.8
2015-Aug-20 01:31N 46°06' W 084°01'  

Dump ship's entire track history